地図

経路データ

SID SEASON NUMBER BASIN SUBBASIN NAME ISO_TIME NATURE LAT LON WMO_WIND WMO_PRES WMO_AGENCY TRACK_TYPE DIST2LAND LANDFALL IFLAG USA_AGENCY USA_ATCF_ID USA_LAT USA_LON USA_RECORD USA_STATUS USA_WIND USA_PRES USA_SSHS USA_R34_NE USA_R34_SE USA_R34_SW USA_R34_NW USA_R50_NE USA_R50_SE USA_R50_SW USA_R50_NW USA_R64_NE USA_R64_SE USA_R64_SW USA_R64_NW USA_POCI USA_ROCI USA_RMW USA_EYE TOKYO_LAT TOKYO_LON TOKYO_GRADE TOKYO_WIND TOKYO_PRES TOKYO_R50_DIR TOKYO_R50_LONG TOKYO_R50_SHORT TOKYO_R30_DIR TOKYO_R30_LONG TOKYO_R30_SHORT TOKYO_LAND CMA_LAT CMA_LON CMA_CAT CMA_WIND CMA_PRES HKO_LAT HKO_LON HKO_CAT HKO_WIND HKO_PRES NEWDELHI_LAT NEWDELHI_LON NEWDELHI_GRADE NEWDELHI_WIND NEWDELHI_PRES NEWDELHI_CI NEWDELHI_DP NEWDELHI_POCI REUNION_LAT REUNION_LON REUNION_TYPE REUNION_WIND REUNION_PRES REUNION_TNUM REUNION_CI REUNION_RMW REUNION_R34_NE REUNION_R34_SE REUNION_R34_SW REUNION_R34_NW REUNION_R50_NE REUNION_R50_SE REUNION_R50_SW REUNION_R50_NW REUNION_R64_NE REUNION_R64_SE REUNION_R64_SW REUNION_R64_NW BOM_LAT BOM_LON BOM_TYPE BOM_WIND BOM_PRES BOM_TNUM BOM_CI BOM_RMW BOM_R34_NE BOM_R34_SE BOM_R34_SW BOM_R34_NW BOM_R50_NE BOM_R50_SE BOM_R50_SW BOM_R50_NW BOM_R64_NE BOM_R64_SE BOM_R64_SW BOM_R64_NW BOM_ROCI BOM_POCI BOM_EYE BOM_POS_METHOD BOM_PRES_METHOD NADI_LAT NADI_LON NADI_CAT NADI_WIND NADI_PRES WELLINGTON_LAT WELLINGTON_LON WELLINGTON_WIND WELLINGTON_PRES DS824_LAT DS824_LON DS824_STAGE DS824_WIND DS824_PRES TD9636_LAT TD9636_LON TD9636_STAGE TD9636_WIND TD9636_PRES TD9635_LAT TD9635_LON TD9635_WIND TD9635_PRES TD9635_ROCI NEUMANN_LAT NEUMANN_LON NEUMANN_CLASS NEUMANN_WIND NEUMANN_PRES MLC_LAT MLC_LON MLC_CLASS MLC_WIND MLC_PRES USA_GUST BOM_GUST BOM_GUST_PER REUNION_GUST REUNION_GUST_PER USA_SEAHGT USA_SEARAD_NE USA_SEARAD_SE USA_SEARAD_SW USA_SEARAD_NW STORM_SPEED STORM_DIR
1910042S13069 1910 8 SI MM NOT_NAMED 1910-02-11 06:00:00 NR -12.9000 68.6000 reunion main 1413 1382 _____O________ -1 -12.9000 68.6000 99 9.90000 5 217
1910042S13069 1910 8 SI MM NOT_NAMED 1910-02-11 09:00:00 NR -13.1157 68.4360 main 1382 1360 _____P________ -1 -13.1157 68.4360 99 5 216
1910042S13069 1910 8 SI MM NOT_NAMED 1910-02-11 12:00:00 NR -13.3346 68.2720 main 1360 1330 _____P________ -1 -13.3346 68.2720 99 5 216
1910042S13069 1910 8 SI MM NOT_NAMED 1910-02-11 15:00:00 NR -13.5600 68.1082 main 1323 1302 _____P________ -1 -13.5600 68.1082 99 6 215
1910042S13069 1910 8 SI MM NOT_NAMED 1910-02-11 18:00:00 NR -13.7952 67.9448 main 1293 1271 _____P________ -1 -13.7952 67.9448 99 6 213
1910042S13069 1910 8 SI MM NOT_NAMED 1910-02-11 21:00:00 NR -14.0435 67.7821 main 1271 1235 _____P________ -1 -14.0435 67.7821 99 6 211
1910042S13069 1910 8 SI MM NOT_NAMED 1910-02-12 00:00:00 NR -14.3082 67.6203 main 1235 1208 _____P________ -1 -14.3082 67.6203 99 6 210
1910042S13069 1910 8 SI MM NOT_NAMED 1910-02-12 03:00:00 NR -14.5926 67.4595 main 1208 1172 _____P________ -1 -14.5926 67.4595 99 7 208
1910042S13069 1910 8 SI MM NOT_NAMED 1910-02-12 06:00:00 NR -14.9000 67.3000 reunion main 1172 1145 _____O________ -1 -14.9000 67.3000 99 9.90000 7 206
1910042S13069 1910 8 SI MM NOT_NAMED 1910-02-12 09:00:00 NR -15.2328 67.1423 main 1136 1105 _____P________ -1 -15.2328 67.1423 99 8 204
1910042S13069 1910 8 SI MM NOT_NAMED 1910-02-12 12:00:00 NR -15.5896 66.9886 main 1105 1070 _____P________ -1 -15.5896 66.9886 99 8 202
1910042S13069 1910 8 SI MM NOT_NAMED 1910-02-12 15:00:00 NR -15.9679 66.8416 main 1065 1040 _____P________ -1 -15.9679 66.8416 99 8 200
1910042S13069 1910 8 SI MM NOT_NAMED 1910-02-12 18:00:00 NR -16.3654 66.7039 main 1035 1006 _____P________ -1 -16.3654 66.7039 99 9 197
1910042S13069 1910 8 SI MM NOT_NAMED 1910-02-12 21:00:00 NR -16.7797 66.5781 main 1006 979 _____P________ -1 -16.7797 66.5781 99 9 195
1910042S13069 1910 8 SI MM NOT_NAMED 1910-02-13 00:00:00 NR -17.2085 66.4671 main 979 953 _____P________ -1 -17.2085 66.4671 99 9 193
1910042S13069 1910 8 SI MM NOT_NAMED 1910-02-13 03:00:00 NR -17.6494 66.3734 main 953 925 _____P________ -1 -17.6494 66.3734 99 9 190
1910042S13069 1910 8 SI MM NOT_NAMED 1910-02-13 06:00:00 NR -18.1000 66.3000 reunion main 925 903 _____O________ -1 -18.1000 66.3000 99 9.90000 9 190
1910042S13069 1910 8 SI MM NOT_NAMED 1910-02-13 09:00:00 NR -18.5429 66.2109 main 903 881 _____P________ -1 -18.5429 66.2109 99 9 190
1910042S13069 1910 8 SI MM NOT_NAMED 1910-02-13 12:00:00 NR -18.9981 66.1377 main 881 873 _____P________ -1 -18.9981 66.1377 99 9 187
1910042S13069 1910 8 SI MM NOT_NAMED 1910-02-13 15:00:00 NR -19.4639 66.0851 main 872 867 _____P________ -1 -19.4639 66.0851 99 10 185
1910042S13069 1910 8 SI MM NOT_NAMED 1910-02-13 18:00:00 NR -19.9388 66.0579 main 867 865 _____P________ -1 -19.9388 66.0579 99 10 181
1910042S13069 1910 8 SI MM NOT_NAMED 1910-02-13 21:00:00 NR -20.4214 66.0608 main 865 865 _____P________ -1 -20.4214 66.0608 99 10 177
1910042S13069 1910 8 SI MM NOT_NAMED 1910-02-14 00:00:00 NR -20.9102 66.0988 main 866 866 _____P________ -1 -20.9102 66.0988 99 10 174
1910042S13069 1910 8 SI MM NOT_NAMED 1910-02-14 03:00:00 NR -21.4036 66.1769 main 881 881 _____P________ -1 -21.4036 66.1769 99 10 169
1910042S13069 1910 8 SI MM NOT_NAMED 1910-02-14 06:00:00 NR -21.9000 66.3000 reunion main 899 899 _____O________ -1 -21.9000 66.3000 99 9.90000 11 164
1910042S13069 1910 8 SI MM NOT_NAMED 1910-02-14 09:00:00 NR -22.4488 66.4950 main 930 930 _____P________ -1 -22.4488 66.4950 99 12 160
1910042S13069 1910 8 SI MM NOT_NAMED 1910-02-14 12:00:00 NR -23.0090 66.7414 main 967 967 _____P________ -1 -23.0090 66.7414 99 12 156
1910042S13069 1910 8 SI MM NOT_NAMED 1910-02-14 15:00:00 NR -23.5678 67.0272 main 1017 1017 _____P________ -1 -23.5678 67.0272 99 12 154
1910042S13069 1910 8 SI MM NOT_NAMED 1910-02-14 18:00:00 NR -24.1126 67.3399 main 1065 1065 _____P________ -1 -24.1126 67.3399 99 12 151
1910042S13069 1910 8 SI MM NOT_NAMED 1910-02-14 21:00:00 NR -24.6307 67.6668 main 1123 1123 _____P________ -1 -24.6307 67.6668 99 12 149
1910042S13069 1910 8 SI MM NOT_NAMED 1910-02-15 00:00:00 NR -25.1096 67.9948 main 1173 1173 _____P________ -1 -25.1096 67.9948 99 11 147
1910042S13069 1910 8 SI MM NOT_NAMED 1910-02-15 03:00:00 NR -25.5368 68.3105 main 1219 1219 _____P________ -1 -25.5368 68.3105 99 10 145
1910042S13069 1910 8 SI MM NOT_NAMED 1910-02-15 06:00:00 NR -25.9000 68.6000 reunion main 1265 1265 _____O________ -1 -25.9000 68.6000 99 9.90000 8 143
1910042S13069 1910 8 SI MM NOT_NAMED 1910-02-15 09:00:00 NR -26.1907 68.8525 main 1307 1307 _____P________ -1 -26.1907 68.8525 99 7 141
1910042S13069 1910 8 SI MM NOT_NAMED 1910-02-15 12:00:00 NR -26.4150 69.0695 main 1335 1335 _____P________ -1 -26.4150 69.0695 99 5 137
1910042S13069 1910 8 SI MM NOT_NAMED 1910-02-15 15:00:00 NR -26.5824 69.2556 main 1363 1363 _____P________ -1 -26.5824 69.2556 99 4 133
1910042S13069 1910 8 SI MM NOT_NAMED 1910-02-15 18:00:00 NR -26.7026 69.4159 main 1377 1377 _____P________ -1 -26.7026 69.4159 99 3 127
1910042S13069 1910 8 SI MM NOT_NAMED 1910-02-15 21:00:00 NR -26.7850 69.5553 main 1400 1400 _____P________ -1 -26.7850 69.5553 99 3 120
1910042S13069 1910 8 SI MM NOT_NAMED 1910-02-16 00:00:00 NR -26.8390 69.6789 main 1408 1408 _____P________ -1 -26.8390 69.6789 99 2 113
1910042S13069 1910 8 SI MM NOT_NAMED 1910-02-16 03:00:00 NR -26.8743 69.7921 main 1422 1422 _____P________ -1 -26.8743 69.7921 99 2 107
1910042S13069 1910 8 SI MM NOT_NAMED 1910-02-16 06:00:00 NR -26.9000 69.9000 reunion main 1431 _____O________ -1 -26.9000 69.9000 99 9.90000 2 105

IBTrACS Databaseについて

本データベースは、米国NOAAが公開する1842年以降の世界の熱帯低気圧のベストトラックデータアーカイブInternational Best Track Archive for Climate Stewardship (IBTrACS)を、ウェブで閲覧しやすい形式に変換したものです。

最終更新日:2021-12-06